sensor_id;sensor_type;location;lat;lon;timestamp;P1;durP1;ratioP1;P2;durP2;ratioP2
21438;SDS011;10880;50.302;18.736;2023-12-28T00:00:34;56.47;;;22.40;;
21438;SDS011;10880;50.302;18.736;2023-12-28T00:03:02;50.20;;;21.13;;
21438;SDS011;10880;50.302;18.736;2023-12-28T00:05:32;48.80;;;19.60;;
21438;SDS011;10880;50.302;18.736;2023-12-28T00:08:00;57.70;;;21.47;;
21438;SDS011;10880;50.302;18.736;2023-12-28T00:10:31;50.43;;;20.57;;
21438;SDS011;10880;50.302;18.736;2023-12-28T00:13:06;42.97;;;18.20;;
21438;SDS011;10880;50.302;18.736;2023-12-28T00:15:34;55.87;;;21.03;;
21438;SDS011;10880;50.302;18.736;2023-12-28T00:18:02;47.13;;;18.93;;
21438;SDS011;10880;50.302;18.736;2023-12-28T00:20:33;59.03;;;23.40;;
21438;SDS011;10880;50.302;18.736;2023-12-28T00:23:05;52.60;;;19.73;;
21438;SDS011;10880;50.302;18.736;2023-12-28T00:25:32;46.33;;;17.47;;
21438;SDS011;10880;50.302;18.736;2023-12-28T00:28:01;47.83;;;21.23;;
21438;SDS011;10880;50.302;18.736;2023-12-28T00:30:30;45.70;;;19.20;;
21438;SDS011;10880;50.302;18.736;2023-12-28T00:33:00;55.00;;;21.53;;
21438;SDS011;10880;50.302;18.736;2023-12-28T00:35:30;42.33;;;17.87;;
21438;SDS011;10880;50.302;18.736;2023-12-28T00:37:58;44.63;;;18.00;;
21438;SDS011;10880;50.302;18.736;2023-12-28T00:40:25;48.57;;;18.43;;
21438;SDS011;10880;50.302;18.736;2023-12-28T00:42:52;49.33;;;20.07;;
21438;SDS011;10880;50.302;18.736;2023-12-28T00:45:25;55.80;;;22.90;;
21438;SDS011;10880;50.302;18.736;2023-12-28T00:47:52;50.87;;;19.90;;
21438;SDS011;10880;50.302;18.736;2023-12-28T00:50:23;45.60;;;18.63;;
21438;SDS011;10880;50.302;18.736;2023-12-28T00:52:57;52.33;;;19.90;;
21438;SDS011;10880;50.302;18.736;2023-12-28T00:55:26;46.93;;;18.93;;
21438;SDS011;10880;50.302;18.736;2023-12-28T00:58:00;45.30;;;19.87;;
21438;SDS011;10880;50.302;18.736;2023-12-28T01:00:30;57.97;;;22.17;;
21438;SDS011;10880;50.302;18.736;2023-12-28T01:02:57;55.07;;;21.63;;
21438;SDS011;10880;50.302;18.736;2023-12-28T01:05:26;51.33;;;22.53;;
21438;SDS011;10880;50.302;18.736;2023-12-28T01:07:58;51.40;;;20.57;;
21438;SDS011;10880;50.302;18.736;2023-12-28T01:10:28;38.90;;;17.57;;
21438;SDS011;10880;50.302;18.736;2023-12-28T01:12:58;39.83;;;16.47;;
21438;SDS011;10880;50.302;18.736;2023-12-28T01:15:26;41.00;;;18.50;;
21438;SDS011;10880;50.302;18.736;2023-12-28T01:17:54;37.00;;;15.10;;
21438;SDS011;10880;50.302;18.736;2023-12-28T01:20:23;62.47;;;24.50;;
21438;SDS011;10880;50.302;18.736;2023-12-28T01:22:51;59.07;;;24.17;;
21438;SDS011;10880;50.302;18.736;2023-12-28T01:25:20;42.70;;;19.23;;
21438;SDS011;10880;50.302;18.736;2023-12-28T01:27:49;35.27;;;16.67;;
21438;SDS011;10880;50.302;18.736;2023-12-28T01:30:17;37.17;;;16.70;;
21438;SDS011;10880;50.302;18.736;2023-12-28T01:32:46;40.57;;;16.87;;
21438;SDS011;10880;50.302;18.736;2023-12-28T01:35:16;57.73;;;22.97;;
21438;SDS011;10880;50.302;18.736;2023-12-28T01:37:46;46.83;;;19.20;;
21438;SDS011;10880;50.302;18.736;2023-12-28T01:40:22;58.90;;;23.63;;
21438;SDS011;10880;50.302;18.736;2023-12-28T01:42:52;44.57;;;18.13;;
21438;SDS011;10880;50.302;18.736;2023-12-28T01:45:21;38.55;;;17.00;;
21438;SDS011;10880;50.302;18.736;2023-12-28T01:47:48;39.60;;;16.50;;
21438;SDS011;10880;50.302;18.736;2023-12-28T01:50:16;36.70;;;15.60;;
21438;SDS011;10880;50.302;18.736;2023-12-28T01:52:49;36.17;;;15.87;;
21438;SDS011;10880;50.302;18.736;2023-12-28T01:55:18;51.23;;;19.27;;
21438;SDS011;10880;50.302;18.736;2023-12-28T01:57:48;52.47;;;20.53;;
21438;SDS011;10880;50.302;18.736;2023-12-28T02:00:20;47.13;;;19.27;;
21438;SDS011;10880;50.302;18.736;2023-12-28T02:02:55;48.20;;;18.50;;
21438;SDS011;10880;50.302;18.736;2023-12-28T02:05:24;49.83;;;19.53;;
21438;SDS011;10880;50.302;18.736;2023-12-28T02:07:51;45.17;;;19.10;;
21438;SDS011;10880;50.302;18.736;2023-12-28T02:10:40;41.57;;;16.93;;
21438;SDS011;10880;50.302;18.736;2023-12-28T02:13:21;41.40;;;16.60;;
21438;SDS011;10880;50.302;18.736;2023-12-28T02:16:13;37.33;;;15.97;;
21438;SDS011;10880;50.302;18.736;2023-12-28T02:18:47;43.13;;;18.23;;
21438;SDS011;10880;50.302;18.736;2023-12-28T02:21:24;45.63;;;18.20;;
21438;SDS011;10880;50.302;18.736;2023-12-28T02:23:55;41.93;;;17.00;;
21438;SDS011;10880;50.302;18.736;2023-12-28T02:26:22;40.13;;;15.73;;
21438;SDS011;10880;50.302;18.736;2023-12-28T02:28:55;37.30;;;15.93;;
21438;SDS011;10880;50.302;18.736;2023-12-28T02:31:35;47.87;;;18.17;;
21438;SDS011;10880;50.302;18.736;2023-12-28T02:34:17;37.63;;;16.43;;
21438;SDS011;10880;50.302;18.736;2023-12-28T02:36:46;41.23;;;17.20;;
21438;SDS011;10880;50.302;18.736;2023-12-28T02:39:15;46.87;;;18.90;;
21438;SDS011;10880;50.302;18.736;2023-12-28T02:41:45;49.93;;;20.83;;
21438;SDS011;10880;50.302;18.736;2023-12-28T02:44:20;49.97;;;21.00;;
21438;SDS011;10880;50.302;18.736;2023-12-28T02:46:49;50.03;;;20.80;;
21438;SDS011;10880;50.302;18.736;2023-12-28T02:49:16;44.10;;;17.97;;
21438;SDS011;10880;50.302;18.736;2023-12-28T02:51:43;48.40;;;18.97;;
21438;SDS011;10880;50.302;18.736;2023-12-28T02:54:12;54.67;;;23.17;;
21438;SDS011;10880;50.302;18.736;2023-12-28T02:56:49;45.60;;;19.00;;
21438;SDS011;10880;50.302;18.736;2023-12-28T02:59:18;46.17;;;19.83;;
21438;SDS011;10880;50.302;18.736;2023-12-28T03:01:47;46.20;;;19.50;;
21438;SDS011;10880;50.302;18.736;2023-12-28T03:04:18;42.77;;;18.10;;
21438;SDS011;10880;50.302;18.736;2023-12-28T03:06:47;37.53;;;17.33;;
21438;SDS011;10880;50.302;18.736;2023-12-28T03:09:19;39.40;;;16.93;;
21438;SDS011;10880;50.302;18.736;2023-12-28T03:11:51;39.40;;;16.10;;
21438;SDS011;10880;50.302;18.736;2023-12-28T03:14:18;36.53;;;16.07;;
21438;SDS011;10880;50.302;18.736;2023-12-28T03:16:50;43.90;;;18.27;;
21438;SDS011;10880;50.302;18.736;2023-12-28T03:19:18;45.07;;;19.40;;
21438;SDS011;10880;50.302;18.736;2023-12-28T03:21:46;42.60;;;16.87;;
21438;SDS011;10880;50.302;18.736;2023-12-28T03:24:24;34.80;;;14.57;;
21438;SDS011;10880;50.302;18.736;2023-12-28T03:27:04;34.73;;;14.53;;
21438;SDS011;10880;50.302;18.736;2023-12-28T03:29:30;31.37;;;13.93;;
21438;SDS011;10880;50.302;18.736;2023-12-28T03:32:00;31.90;;;13.10;;
21438;SDS011;10880;50.302;18.736;2023-12-28T03:34:28;32.90;;;14.03;;
21438;SDS011;10880;50.302;18.736;2023-12-28T03:36:57;32.90;;;14.77;;
21438;SDS011;10880;50.302;18.736;2023-12-28T03:39:24;33.93;;;14.13;;
21438;SDS011;10880;50.302;18.736;2023-12-28T03:41:57;37.63;;;16.30;;
21438;SDS011;10880;50.302;18.736;2023-12-28T03:44:27;37.20;;;16.30;;
21438;SDS011;10880;50.302;18.736;2023-12-28T03:46:54;37.93;;;16.50;;
21438;SDS011;10880;50.302;18.736;2023-12-28T03:49:26;36.03;;;15.40;;
21438;SDS011;10880;50.302;18.736;2023-12-28T03:51:57;34.87;;;15.13;;
21438;SDS011;10880;50.302;18.736;2023-12-28T03:54:24;32.60;;;14.63;;
21438;SDS011;10880;50.302;18.736;2023-12-28T03:56:52;27.63;;;13.50;;
21438;SDS011;10880;50.302;18.736;2023-12-28T03:59:19;36.00;;;16.70;;
21438;SDS011;10880;50.302;18.736;2023-12-28T04:01:47;36.63;;;16.27;;
21438;SDS011;10880;50.302;18.736;2023-12-28T04:04:18;32.60;;;15.77;;
21438;SDS011;10880;50.302;18.736;2023-12-28T04:06:47;33.20;;;14.07;;
21438;SDS011;10880;50.302;18.736;2023-12-28T04:09:14;31.63;;;13.43;;
21438;SDS011;10880;50.302;18.736;2023-12-28T04:11:42;26.97;;;12.87;;
21438;SDS011;10880;50.302;18.736;2023-12-28T04:14:11;26.07;;;11.23;;
21438;SDS011;10880;50.302;18.736;2023-12-28T04:16:39;26.07;;;12.27;;
21438;SDS011;10880;50.302;18.736;2023-12-28T04:19:07;24.33;;;11.77;;
21438;SDS011;10880;50.302;18.736;2023-12-28T04:21:37;43.03;;;15.17;;
21438;SDS011;10880;50.302;18.736;2023-12-28T04:24:04;34.20;;;16.13;;
21438;SDS011;10880;50.302;18.736;2023-12-28T04:26:34;34.57;;;15.67;;
21438;SDS011;10880;50.302;18.736;2023-12-28T04:29:02;31.47;;;14.33;;
21438;SDS011;10880;50.302;18.736;2023-12-28T04:31:30;32.90;;;14.53;;
21438;SDS011;10880;50.302;18.736;2023-12-28T04:33:57;33.10;;;15.73;;
21438;SDS011;10880;50.302;18.736;2023-12-28T04:36:25;44.90;;;20.00;;
21438;SDS011;10880;50.302;18.736;2023-12-28T04:38:52;53.53;;;24.03;;
21438;SDS011;10880;50.302;18.736;2023-12-28T04:41:27;48.27;;;22.00;;
21438;SDS011;10880;50.302;18.736;2023-12-28T04:43:55;43.57;;;19.27;;
21438;SDS011;10880;50.302;18.736;2023-12-28T04:46:23;41.83;;;17.73;;
21438;SDS011;10880;50.302;18.736;2023-12-28T04:48:51;34.73;;;15.10;;
21438;SDS011;10880;50.302;18.736;2023-12-28T04:51:21;30.97;;;14.10;;
21438;SDS011;10880;50.302;18.736;2023-12-28T04:53:54;34.13;;;15.43;;
21438;SDS011;10880;50.302;18.736;2023-12-28T04:56:23;27.70;;;12.93;;
21438;SDS011;10880;50.302;18.736;2023-12-28T04:58:53;39.37;;;16.27;;
21438;SDS011;10880;50.302;18.736;2023-12-28T05:01:21;27.97;;;13.07;;
21438;SDS011;10880;50.302;18.736;2023-12-28T05:03:51;22.20;;;11.07;;
21438;SDS011;10880;50.302;18.736;2023-12-28T05:06:21;20.20;;;9.70;;
21438;SDS011;10880;50.302;18.736;2023-12-28T05:08:49;13.80;;;7.17;;
21438;SDS011;10880;50.302;18.736;2023-12-28T05:11:17;14.13;;;6.90;;
21438;SDS011;10880;50.302;18.736;2023-12-28T05:13:47;13.57;;;7.37;;
21438;SDS011;10880;50.302;18.736;2023-12-28T05:16:14;10.70;;;5.93;;
21438;SDS011;10880;50.302;18.736;2023-12-28T05:18:40;10.07;;;4.80;;
21438;SDS011;10880;50.302;18.736;2023-12-28T05:21:09;10.73;;;5.07;;
21438;SDS011;10880;50.302;18.736;2023-12-28T05:23:41;7.80;;;5.33;;
21438;SDS011;10880;50.302;18.736;2023-12-28T05:26:10;8.57;;;5.37;;
21438;SDS011;10880;50.302;18.736;2023-12-28T05:28:38;13.73;;;6.33;;
21438;SDS011;10880;50.302;18.736;2023-12-28T05:31:06;10.77;;;5.77;;
21438;SDS011;10880;50.302;18.736;2023-12-28T05:33:33;10.67;;;6.13;;
21438;SDS011;10880;50.302;18.736;2023-12-28T05:36:02;11.83;;;7.13;;
21438;SDS011;10880;50.302;18.736;2023-12-28T05:38:30;15.97;;;8.17;;
21438;SDS011;10880;50.302;18.736;2023-12-28T05:41:02;11.37;;;6.30;;
21438;SDS011;10880;50.302;18.736;2023-12-28T05:43:34;10.57;;;6.83;;
21438;SDS011;10880;50.302;18.736;2023-12-28T05:46:07;10.63;;;6.70;;
21438;SDS011;10880;50.302;18.736;2023-12-28T05:48:40;9.33;;;6.13;;
21438;SDS011;10880;50.302;18.736;2023-12-28T05:51:19;10.53;;;5.80;;
21438;SDS011;10880;50.302;18.736;2023-12-28T05:53:45;10.00;;;5.60;;
21438;SDS011;10880;50.302;18.736;2023-12-28T05:56:14;9.00;;;5.27;;
21438;SDS011;10880;50.302;18.736;2023-12-28T05:58:44;7.03;;;5.10;;
21438;SDS011;10880;50.302;18.736;2023-12-28T06:01:11;8.40;;;4.83;;
21438;SDS011;10880;50.302;18.736;2023-12-28T06:03:47;14.50;;;7.27;;
21438;SDS011;10880;50.302;18.736;2023-12-28T06:06:18;10.30;;;6.70;;
21438;SDS011;10880;50.302;18.736;2023-12-28T06:08:46;8.73;;;6.00;;
21438;SDS011;10880;50.302;18.736;2023-12-28T06:11:15;14.33;;;6.13;;
21438;SDS011;10880;50.302;18.736;2023-12-28T06:13:42;10.10;;;5.77;;
21438;SDS011;10880;50.302;18.736;2023-12-28T06:16:10;7.73;;;4.53;;
21438;SDS011;10880;50.302;18.736;2023-12-28T06:18:43;7.17;;;4.70;;
21438;SDS011;10880;50.302;18.736;2023-12-28T06:21:13;8.73;;;5.47;;
21438;SDS011;10880;50.302;18.736;2023-12-28T06:23:40;10.77;;;5.10;;
21438;SDS011;10880;50.302;18.736;2023-12-28T06:26:09;7.77;;;5.37;;
21438;SDS011;10880;50.302;18.736;2023-12-28T06:28:40;7.90;;;4.93;;
21438;SDS011;10880;50.302;18.736;2023-12-28T06:31:08;10.67;;;5.90;;
21438;SDS011;10880;50.302;18.736;2023-12-28T06:33:48;7.47;;;4.93;;
21438;SDS011;10880;50.302;18.736;2023-12-28T06:36:17;7.97;;;5.40;;
21438;SDS011;10880;50.302;18.736;2023-12-28T06:38:47;7.50;;;5.20;;
21438;SDS011;10880;50.302;18.736;2023-12-28T06:41:17;7.83;;;5.40;;
21438;SDS011;10880;50.302;18.736;2023-12-28T06:43:45;7.07;;;4.90;;
21438;SDS011;10880;50.302;18.736;2023-12-28T06:46:12;6.87;;;4.30;;
21438;SDS011;10880;50.302;18.736;2023-12-28T06:48:40;7.77;;;4.50;;
21438;SDS011;10880;50.302;18.736;2023-12-28T06:51:10;7.77;;;5.03;;
21438;SDS011;10880;50.302;18.736;2023-12-28T06:53:40;8.20;;;4.40;;
21438;SDS011;10880;50.302;18.736;2023-12-28T06:56:13;9.90;;;5.80;;
21438;SDS011;10880;50.302;18.736;2023-12-28T06:58:45;9.20;;;6.13;;
21438;SDS011;10880;50.302;18.736;2023-12-28T07:01:11;5.63;;;4.33;;
21438;SDS011;10880;50.302;18.736;2023-12-28T07:03:40;6.07;;;4.63;;
21438;SDS011;10880;50.302;18.736;2023-12-28T07:06:08;5.90;;;3.47;;
21438;SDS011;10880;50.302;18.736;2023-12-28T07:08:38;9.30;;;5.10;;
21438;SDS011;10880;50.302;18.736;2023-12-28T07:11:06;10.07;;;6.50;;
21438;SDS011;10880;50.302;18.736;2023-12-28T07:13:38;9.57;;;5.70;;
21438;SDS011;10880;50.302;18.736;2023-12-28T07:16:07;11.73;;;6.83;;
21438;SDS011;10880;50.302;18.736;2023-12-28T07:18:35;7.10;;;5.10;;
21438;SDS011;10880;50.302;18.736;2023-12-28T07:21:24;10.33;;;6.70;;
21438;SDS011;10880;50.302;18.736;2023-12-28T07:23:55;7.07;;;4.70;;
21438;SDS011;10880;50.302;18.736;2023-12-28T07:26:24;9.93;;;6.77;;
21438;SDS011;10880;50.302;18.736;2023-12-28T07:28:53;8.90;;;5.90;;
21438;SDS011;10880;50.302;18.736;2023-12-28T07:31:27;9.63;;;5.90;;
21438;SDS011;10880;50.302;18.736;2023-12-28T07:33:57;8.33;;;5.47;;
21438;SDS011;10880;50.302;18.736;2023-12-28T07:36:24;11.70;;;5.63;;
21438;SDS011;10880;50.302;18.736;2023-12-28T07:38:54;8.57;;;5.70;;
21438;SDS011;10880;50.302;18.736;2023-12-28T07:41:21;7.83;;;4.97;;
21438;SDS011;10880;50.302;18.736;2023-12-28T07:43:50;6.57;;;4.87;;
21438;SDS011;10880;50.302;18.736;2023-12-28T07:46:20;6.07;;;4.10;;
21438;SDS011;10880;50.302;18.736;2023-12-28T07:48:49;7.37;;;4.63;;
21438;SDS011;10880;50.302;18.736;2023-12-28T07:51:17;5.23;;;4.00;;
21438;SDS011;10880;50.302;18.736;2023-12-28T07:53:47;6.20;;;4.20;;
21438;SDS011;10880;50.302;18.736;2023-12-28T07:56:15;5.80;;;3.90;;
21438;SDS011;10880;50.302;18.736;2023-12-28T07:58:49;10.73;;;6.27;;
21438;SDS011;10880;50.302;18.736;2023-12-28T08:01:16;8.00;;;4.60;;
21438;SDS011;10880;50.302;18.736;2023-12-28T08:03:44;8.23;;;5.50;;
21438;SDS011;10880;50.302;18.736;2023-12-28T08:06:14;10.53;;;5.63;;
21438;SDS011;10880;50.302;18.736;2023-12-28T08:08:42;10.43;;;5.73;;
21438;SDS011;10880;50.302;18.736;2023-12-28T08:11:10;8.70;;;5.40;;
21438;SDS011;10880;50.302;18.736;2023-12-28T08:13:42;9.80;;;5.60;;
21438;SDS011;10880;50.302;18.736;2023-12-28T08:16:17;8.97;;;5.33;;
21438;SDS011;10880;50.302;18.736;2023-12-28T08:18:46;9.23;;;5.93;;
21438;SDS011;10880;50.302;18.736;2023-12-28T08:21:16;13.13;;;6.70;;
21438;SDS011;10880;50.302;18.736;2023-12-28T08:23:49;9.13;;;5.60;;
21438;SDS011;10880;50.302;18.736;2023-12-28T08:26:16;12.50;;;6.57;;
21438;SDS011;10880;50.302;18.736;2023-12-28T08:28:44;9.57;;;5.57;;
21438;SDS011;10880;50.302;18.736;2023-12-28T08:31:16;9.70;;;5.70;;
21438;SDS011;10880;50.302;18.736;2023-12-28T08:33:53;8.97;;;5.23;;
21438;SDS011;10880;50.302;18.736;2023-12-28T08:36:23;7.93;;;4.70;;
21438;SDS011;10880;50.302;18.736;2023-12-28T08:38:50;10.87;;;5.77;;
21438;SDS011;10880;50.302;18.736;2023-12-28T08:41:18;11.87;;;6.60;;
21438;SDS011;10880;50.302;18.736;2023-12-28T08:43:46;8.33;;;5.23;;
21438;SDS011;10880;50.302;18.736;2023-12-28T08:46:16;12.13;;;5.83;;
21438;SDS011;10880;50.302;18.736;2023-12-28T08:48:45;7.87;;;4.70;;
21438;SDS011;10880;50.302;18.736;2023-12-28T08:51:13;7.73;;;4.97;;
21438;SDS011;10880;50.302;18.736;2023-12-28T08:53:41;7.40;;;4.40;;
21438;SDS011;10880;50.302;18.736;2023-12-28T08:56:16;7.67;;;4.47;;
21438;SDS011;10880;50.302;18.736;2023-12-28T08:58:54;7.03;;;4.43;;
21438;SDS011;10880;50.302;18.736;2023-12-28T09:01:23;6.03;;;4.17;;
21438;SDS011;10880;50.302;18.736;2023-12-28T09:03:56;5.57;;;3.93;;
21438;SDS011;10880;50.302;18.736;2023-12-28T09:06:27;9.90;;;6.07;;
21438;SDS011;10880;50.302;18.736;2023-12-28T09:08:59;12.17;;;6.30;;
21438;SDS011;10880;50.302;18.736;2023-12-28T09:11:36;10.17;;;5.47;;
21438;SDS011;10880;50.302;18.736;2023-12-28T09:14:12;8.00;;;4.83;;
21438;SDS011;10880;50.302;18.736;2023-12-28T09:16:45;7.60;;;4.47;;
21438;SDS011;10880;50.302;18.736;2023-12-28T09:19:14;5.93;;;4.20;;
21438;SDS011;10880;50.302;18.736;2023-12-28T09:21:42;6.47;;;4.60;;
21438;SDS011;10880;50.302;18.736;2023-12-28T09:24:09;5.13;;;4.00;;
21438;SDS011;10880;50.302;18.736;2023-12-28T09:26:43;7.77;;;4.90;;
21438;SDS011;10880;50.302;18.736;2023-12-28T09:29:12;10.00;;;5.97;;
21438;SDS011;10880;50.302;18.736;2023-12-28T09:31:41;12.73;;;7.67;;
21438;SDS011;10880;50.302;18.736;2023-12-28T09:34:14;12.03;;;7.17;;
21438;SDS011;10880;50.302;18.736;2023-12-28T09:36:50;6.63;;;4.90;;
21438;SDS011;10880;50.302;18.736;2023-12-28T09:39:18;8.37;;;5.17;;
21438;SDS011;10880;50.302;18.736;2023-12-28T09:41:49;9.60;;;5.27;;
21438;SDS011;10880;50.302;18.736;2023-12-28T09:44:32;7.17;;;4.73;;
21438;SDS011;10880;50.302;18.736;2023-12-28T09:47:11;5.23;;;4.10;;
21438;SDS011;10880;50.302;18.736;2023-12-28T09:49:40;7.40;;;4.20;;
21438;SDS011;10880;50.302;18.736;2023-12-28T09:52:17;8.90;;;5.63;;
21438;SDS011;10880;50.302;18.736;2023-12-28T09:54:46;9.40;;;5.77;;
21438;SDS011;10880;50.302;18.736;2023-12-28T09:57:17;9.23;;;5.90;;
21438;SDS011;10880;50.302;18.736;2023-12-28T09:59:46;6.90;;;4.97;;
21438;SDS011;10880;50.302;18.736;2023-12-28T10:02:18;12.43;;;7.67;;
21438;SDS011;10880;50.302;18.736;2023-12-28T10:04:45;14.23;;;7.57;;
21438;SDS011;10880;50.302;18.736;2023-12-28T10:07:21;8.57;;;5.97;;
21438;SDS011;10880;50.302;18.736;2023-12-28T10:09:50;8.87;;;5.50;;
21438;SDS011;10880;50.302;18.736;2023-12-28T10:12:17;10.30;;;5.53;;
21438;SDS011;10880;50.302;18.736;2023-12-28T10:14:47;12.83;;;6.60;;
21438;SDS011;10880;50.302;18.736;2023-12-28T10:17:15;10.27;;;6.50;;
21438;SDS011;10880;50.302;18.736;2023-12-28T10:19:52;11.47;;;6.27;;
21438;SDS011;10880;50.302;18.736;2023-12-28T10:22:22;12.17;;;6.80;;
21438;SDS011;10880;50.302;18.736;2023-12-28T10:24:51;10.17;;;6.70;;
21438;SDS011;10880;50.302;18.736;2023-12-28T10:27:23;11.37;;;6.00;;
21438;SDS011;10880;50.302;18.736;2023-12-28T10:29:57;7.57;;;5.20;;
21438;SDS011;10880;50.302;18.736;2023-12-28T10:32:24;9.53;;;6.13;;
21438;SDS011;10880;50.302;18.736;2023-12-28T10:34:56;8.73;;;5.20;;
21438;SDS011;10880;50.302;18.736;2023-12-28T10:37:29;6.03;;;4.17;;
21438;SDS011;10880;50.302;18.736;2023-12-28T10:40:04;7.47;;;4.20;;
21438;SDS011;10880;50.302;18.736;2023-12-28T10:45:37;15.30;;;9.00;;
21438;SDS011;10880;50.302;18.736;2023-12-28T10:48:13;15.27;;;8.17;;
21438;SDS011;10880;50.302;18.736;2023-12-28T10:50:57;10.73;;;7.23;;
21438;SDS011;10880;50.302;18.736;2023-12-28T11:01:37;6.43;;;4.47;;
21438;SDS011;10880;50.302;18.736;2023-12-28T11:06:57;6.77;;;4.47;;
21438;SDS011;10880;50.302;18.736;2023-12-28T11:09:35;8.17;;;5.27;;
21438;SDS011;10880;50.302;18.736;2023-12-28T11:12:08;11.57;;;7.33;;
21438;SDS011;10880;50.302;18.736;2023-12-28T11:14:41;10.20;;;6.40;;
21438;SDS011;10880;50.302;18.736;2023-12-28T11:17:32;13.00;;;6.60;;
21438;SDS011;10880;50.302;18.736;2023-12-28T11:20:06;9.90;;;5.70;;
21438;SDS011;10880;50.302;18.736;2023-12-28T11:22:41;8.50;;;5.40;;
21438;SDS011;10880;50.302;18.736;2023-12-28T11:25:16;8.23;;;5.30;;
21438;SDS011;10880;50.302;18.736;2023-12-28T11:27:47;10.30;;;5.97;;
21438;SDS011;10880;50.302;18.736;2023-12-28T11:30:18;10.87;;;6.77;;
21438;SDS011;10880;50.302;18.736;2023-12-28T11:32:46;11.40;;;6.33;;
21438;SDS011;10880;50.302;18.736;2023-12-28T11:35:14;7.77;;;4.93;;
21438;SDS011;10880;50.302;18.736;2023-12-28T11:37:57;9.90;;;5.83;;
21438;SDS011;10880;50.302;18.736;2023-12-28T11:40:27;8.83;;;5.03;;
21438;SDS011;10880;50.302;18.736;2023-12-28T11:42:55;9.47;;;5.40;;
21438;SDS011;10880;50.302;18.736;2023-12-28T11:45:23;6.93;;;5.13;;
21438;SDS011;10880;50.302;18.736;2023-12-28T11:48:01;11.93;;;6.90;;
21438;SDS011;10880;50.302;18.736;2023-12-28T11:50:33;11.33;;;6.13;;
21438;SDS011;10880;50.302;18.736;2023-12-28T11:53:01;9.07;;;5.43;;
21438;SDS011;10880;50.302;18.736;2023-12-28T11:55:41;8.67;;;5.60;;
21438;SDS011;10880;50.302;18.736;2023-12-28T11:58:19;9.00;;;5.87;;
21438;SDS011;10880;50.302;18.736;2023-12-28T12:01:10;7.50;;;4.80;;
21438;SDS011;10880;50.302;18.736;2023-12-28T12:03:42;6.27;;;4.73;;
21438;SDS011;10880;50.302;18.736;2023-12-28T12:06:25;8.67;;;4.53;;
21438;SDS011;10880;50.302;18.736;2023-12-28T12:09:01;10.20;;;6.23;;
21438;SDS011;10880;50.302;18.736;2023-12-28T12:11:33;9.10;;;5.70;;
21438;SDS011;10880;50.302;18.736;2023-12-28T12:14:07;10.00;;;6.73;;
21438;SDS011;10880;50.302;18.736;2023-12-28T12:16:48;10.60;;;7.03;;
21438;SDS011;10880;50.302;18.736;2023-12-28T12:19:35;12.47;;;6.60;;
21438;SDS011;10880;50.302;18.736;2023-12-28T12:22:07;12.37;;;6.60;;
21438;SDS011;10880;50.302;18.736;2023-12-28T12:24:51;7.43;;;5.23;;
21438;SDS011;10880;50.302;18.736;2023-12-28T12:27:19;10.20;;;6.20;;
21438;SDS011;10880;50.302;18.736;2023-12-28T12:29:50;9.53;;;5.37;;
21438;SDS011;10880;50.302;18.736;2023-12-28T12:32:18;11.60;;;6.67;;
21438;SDS011;10880;50.302;18.736;2023-12-28T12:34:51;11.17;;;6.33;;
21438;SDS011;10880;50.302;18.736;2023-12-28T12:37:31;10.17;;;5.97;;
21438;SDS011;10880;50.302;18.736;2023-12-28T12:40:03;10.80;;;6.43;;
21438;SDS011;10880;50.302;18.736;2023-12-28T12:42:38;8.93;;;5.70;;
21438;SDS011;10880;50.302;18.736;2023-12-28T12:45:16;8.73;;;5.13;;
21438;SDS011;10880;50.302;18.736;2023-12-28T12:47:49;7.07;;;4.80;;
21438;SDS011;10880;50.302;18.736;2023-12-28T12:50:16;8.77;;;5.20;;
21438;SDS011;10880;50.302;18.736;2023-12-28T12:52:52;7.83;;;4.73;;
21438;SDS011;10880;50.302;18.736;2023-12-28T12:55:20;10.27;;;6.10;;
21438;SDS011;10880;50.302;18.736;2023-12-28T12:57:51;6.73;;;4.80;;
21438;SDS011;10880;50.302;18.736;2023-12-28T13:00:21;5.93;;;4.37;;
21438;SDS011;10880;50.302;18.736;2023-12-28T13:02:50;5.43;;;4.07;;
21438;SDS011;10880;50.302;18.736;2023-12-28T13:05:25;4.27;;;3.73;;
21438;SDS011;10880;50.302;18.736;2023-12-28T13:07:53;5.90;;;4.00;;
21438;SDS011;10880;50.302;18.736;2023-12-28T13:10:22;6.83;;;4.23;;
21438;SDS011;10880;50.302;18.736;2023-12-28T13:12:52;8.03;;;4.73;;
21438;SDS011;10880;50.302;18.736;2023-12-28T13:15:19;5.67;;;4.20;;
21438;SDS011;10880;50.302;18.736;2023-12-28T13:17:47;5.43;;;3.70;;
21438;SDS011;10880;50.302;18.736;2023-12-28T13:20:23;5.07;;;3.53;;
21438;SDS011;10880;50.302;18.736;2023-12-28T13:22:51;6.20;;;4.40;;
21438;SDS011;10880;50.302;18.736;2023-12-28T13:25:36;7.03;;;4.17;;
21438;SDS011;10880;50.302;18.736;2023-12-28T13:28:09;4.87;;;3.53;;
21438;SDS011;10880;50.302;18.736;2023-12-28T13:30:52;5.50;;;3.90;;
21438;SDS011;10880;50.302;18.736;2023-12-28T13:33:26;5.00;;;3.77;;
21438;SDS011;10880;50.302;18.736;2023-12-28T13:35:56;4.93;;;3.60;;
21438;SDS011;10880;50.302;18.736;2023-12-28T13:38:25;5.73;;;4.20;;
21438;SDS011;10880;50.302;18.736;2023-12-28T13:41:07;8.23;;;4.60;;
21438;SDS011;10880;50.302;18.736;2023-12-28T13:43:41;6.07;;;3.97;;
21438;SDS011;10880;50.302;18.736;2023-12-28T13:46:14;5.20;;;3.80;;
21438;SDS011;10880;50.302;18.736;2023-12-28T13:48:43;5.77;;;3.83;;
21438;SDS011;10880;50.302;18.736;2023-12-28T13:51:14;4.33;;;3.50;;
21438;SDS011;10880;50.302;18.736;2023-12-28T13:53:43;3.97;;;3.27;;
21438;SDS011;10880;50.302;18.736;2023-12-28T13:56:14;4.77;;;3.57;;
21438;SDS011;10880;50.302;18.736;2023-12-28T13:58:46;4.77;;;3.50;;
21438;SDS011;10880;50.302;18.736;2023-12-28T14:01:19;5.77;;;3.97;;
21438;SDS011;10880;50.302;18.736;2023-12-28T14:03:50;7.50;;;4.20;;
21438;SDS011;10880;50.302;18.736;2023-12-28T14:06:18;4.83;;;3.87;;
21438;SDS011;10880;50.302;18.736;2023-12-28T14:08:52;5.83;;;4.23;;
21438;SDS011;10880;50.302;18.736;2023-12-28T14:11:23;5.23;;;3.73;;
21438;SDS011;10880;50.302;18.736;2023-12-28T14:13:53;5.90;;;3.80;;
21438;SDS011;10880;50.302;18.736;2023-12-28T14:16:20;4.70;;;3.70;;
21438;SDS011;10880;50.302;18.736;2023-12-28T14:18:51;6.40;;;4.10;;
21438;SDS011;10880;50.302;18.736;2023-12-28T14:21:19;6.67;;;4.27;;
21438;SDS011;10880;50.302;18.736;2023-12-28T14:23:48;4.97;;;3.53;;
21438;SDS011;10880;50.302;18.736;2023-12-28T14:26:19;4.77;;;3.67;;
21438;SDS011;10880;50.302;18.736;2023-12-28T14:28:53;7.13;;;4.70;;
21438;SDS011;10880;50.302;18.736;2023-12-28T14:31:22;6.50;;;4.60;;
21438;SDS011;10880;50.302;18.736;2023-12-28T14:33:59;5.90;;;4.27;;
21438;SDS011;10880;50.302;18.736;2023-12-28T14:36:33;5.67;;;4.00;;
21438;SDS011;10880;50.302;18.736;2023-12-28T14:39:07;5.33;;;4.07;;
21438;SDS011;10880;50.302;18.736;2023-12-28T14:41:39;5.97;;;4.50;;
21438;SDS011;10880;50.302;18.736;2023-12-28T14:44:07;5.80;;;4.07;;
21438;SDS011;10880;50.302;18.736;2023-12-28T14:46:40;4.87;;;3.50;;
21438;SDS011;10880;50.302;18.736;2023-12-28T14:49:08;3.80;;;3.20;;
21438;SDS011;10880;50.302;18.736;2023-12-28T14:51:38;7.37;;;4.60;;
21438;SDS011;10880;50.302;18.736;2023-12-28T14:54:06;6.33;;;4.13;;
21438;SDS011;10880;50.302;18.736;2023-12-28T14:56:36;4.67;;;3.77;;
21438;SDS011;10880;50.302;18.736;2023-12-28T14:59:06;6.13;;;4.40;;